createdAt,value
2022-10-29T00:01:02.040Z,3.67
2022-10-29T00:03:49.345Z,4.87
2022-10-29T00:06:36.752Z,3.40
2022-10-29T00:09:23.683Z,4.93
2022-10-29T00:12:10.624Z,2.80
2022-10-29T00:14:57.517Z,2.97
2022-10-29T00:17:44.455Z,3.17
2022-10-29T00:20:31.369Z,4.73
2022-10-29T00:23:18.294Z,2.50
2022-10-29T00:26:06.062Z,2.87
2022-10-29T00:28:54.782Z,1.70
2022-10-29T00:31:41.774Z,1.63
2022-10-29T00:34:29.244Z,2.67
2022-10-29T00:37:16.162Z,2.23
2022-10-29T00:40:03.897Z,2.63
2022-10-29T00:42:51.037Z,2.33
2022-10-29T00:45:45.727Z,2.63
2022-10-29T00:48:36.158Z,3.17
2022-10-29T00:51:23.370Z,3.23
2022-10-29T00:54:12.413Z,3.73
2022-10-29T00:57:06.705Z,3.00
2022-10-29T00:59:54.322Z,3.00
2022-10-29T01:02:43.649Z,3.10
2022-10-29T01:05:33.880Z,2.90
2022-10-29T01:08:21.363Z,2.37
2022-10-29T01:11:26.671Z,2.40
2022-10-29T01:14:38.154Z,2.10
2022-10-29T01:17:58.736Z,2.70
2022-10-29T01:21:16.101Z,2.90
2022-10-29T01:24:35.752Z,2.67
2022-10-29T01:27:39.682Z,2.70
2022-10-29T01:30:47.745Z,3.10
2022-10-29T01:33:53.141Z,3.07
2022-10-29T01:36:49.108Z,2.73
2022-10-29T01:39:52.349Z,3.73
2022-10-29T01:42:40.549Z,3.07
2022-10-29T01:45:35.326Z,2.70
2022-10-29T01:48:33.774Z,2.83
2022-10-29T01:51:24.713Z,2.17
2022-10-29T01:54:12.040Z,2.40
2022-10-29T01:57:00.618Z,2.40
2022-10-29T01:59:55.566Z,2.67
2022-10-29T02:03:18.686Z,2.07
2022-10-29T02:06:20.156Z,2.57
2022-10-29T02:09:51.624Z,2.43
2022-10-29T02:12:53.497Z,2.57
2022-10-29T02:15:48.194Z,2.00
2022-10-29T02:18:47.282Z,1.97
2022-10-29T02:21:34.225Z,2.10
2022-10-29T02:24:21.209Z,2.23
2022-10-29T02:27:08.173Z,2.10
2022-10-29T02:29:55.093Z,2.17
2022-10-29T02:32:42.118Z,1.77
2022-10-29T02:35:29.052Z,1.93
2022-10-29T02:38:15.994Z,2.00
2022-10-29T02:41:03.203Z,1.90
2022-10-29T02:43:50.124Z,1.93
2022-10-29T02:46:39.548Z,2.27
2022-10-29T02:49:26.641Z,2.53
2022-10-29T02:52:13.598Z,2.97
2022-10-29T02:55:00.513Z,4.03
2022-10-29T02:57:47.454Z,1.70
2022-10-29T03:00:34.375Z,2.77
2022-10-29T03:03:21.709Z,2.30
2022-10-29T03:06:16.668Z,2.30
2022-10-29T03:09:04.305Z,2.10
2022-10-29T03:11:51.312Z,2.10
2022-10-29T03:14:38.253Z,2.50
2022-10-29T03:17:25.859Z,2.30
2022-10-29T03:20:12.796Z,2.40
2022-10-29T03:22:59.736Z,2.60
2022-10-29T03:25:55.755Z,2.50
2022-10-29T03:28:43.381Z,5.20
2022-10-29T03:31:30.368Z,3.00
2022-10-29T03:34:17.309Z,2.33
2022-10-29T03:37:04.242Z,1.90
2022-10-29T03:39:51.161Z,1.77
2022-10-29T03:42:39.128Z,1.80
2022-10-29T03:45:26.088Z,1.80
2022-10-29T03:48:13.001Z,2.73
2022-10-29T03:51:01.731Z,2.03
2022-10-29T03:53:48.652Z,1.93
2022-10-29T03:56:35.587Z,2.17
2022-10-29T03:59:22.572Z,2.30
2022-10-29T04:02:10.167Z,2.73
2022-10-29T04:04:57.219Z,2.40
2022-10-29T04:07:44.144Z,2.53
2022-10-29T04:10:31.261Z,2.67
2022-10-29T04:13:19.088Z,2.20
2022-10-29T04:16:06.317Z,2.53
2022-10-29T04:18:53.423Z,2.40
2022-10-29T04:31:07.211Z,2.27
2022-10-29T04:33:54.162Z,4.60
2022-10-29T04:36:41.207Z,3.60
2022-10-29T04:39:28.137Z,2.20
2022-10-29T04:42:15.080Z,2.40
2022-10-29T04:45:02.003Z,3.23
2022-10-29T04:47:48.939Z,3.37
2022-10-29T04:50:38.130Z,3.57
2022-10-29T04:53:25.226Z,3.07
2022-10-29T04:56:12.162Z,2.30
2022-10-29T04:58:59.095Z,2.63
2022-10-29T05:01:46.118Z,2.10
2022-10-29T05:04:33.111Z,2.50
2022-10-29T05:07:20.078Z,2.63
2022-10-29T05:10:07.427Z,2.73
2022-10-29T05:12:59.521Z,2.77
2022-10-29T05:15:53.356Z,2.53
2022-10-29T05:18:40.657Z,2.30
2022-10-29T05:21:27.645Z,2.50
2022-10-29T05:24:14.879Z,2.27
2022-10-29T05:27:02.212Z,2.50
2022-10-29T05:29:49.178Z,3.70
2022-10-29T05:35:28.137Z,3.17
2022-10-29T05:38:15.935Z,2.87
2022-10-29T05:41:03.035Z,3.23
2022-10-29T05:43:50.284Z,3.00
2022-10-29T05:46:37.476Z,2.73
2022-10-29T05:49:24.501Z,2.67
2022-10-29T05:52:11.455Z,3.13
2022-10-29T05:54:59.053Z,2.50
2022-10-29T05:57:45.993Z,2.43
2022-10-29T06:00:35.995Z,5.80
2022-10-29T06:03:23.155Z,2.50
2022-10-29T06:06:10.203Z,3.00
2022-10-29T06:08:57.310Z,2.70
2022-10-29T06:11:44.270Z,2.63
2022-10-29T06:14:31.284Z,2.33
2022-10-29T06:17:18.249Z,3.20
2022-10-29T06:20:05.659Z,2.80
2022-10-29T06:22:58.232Z,2.50
2022-10-29T06:25:45.581Z,2.53
2022-10-29T06:28:34.736Z,2.63
2022-10-29T06:31:22.013Z,4.07
2022-10-29T06:34:09.355Z,2.43
2022-10-29T06:36:56.490Z,3.97
2022-10-29T06:39:44.106Z,2.43
2022-10-29T06:42:31.888Z,2.57
2022-10-29T06:45:19.522Z,2.20
2022-10-29T06:48:07.295Z,3.27
2022-10-29T06:50:54.769Z,2.20
2022-10-29T06:53:42.567Z,2.27
2022-10-29T06:56:30.707Z,3.67
2022-10-29T06:59:18.396Z,4.67
2022-10-29T07:02:06.246Z,2.73
2022-10-29T07:04:54.167Z,3.37
2022-10-29T07:07:41.747Z,2.10
2022-10-29T07:10:31.121Z,2.20
2022-10-29T07:13:18.823Z,5.17
2022-10-29T07:16:06.851Z,6.53
2022-10-29T07:18:54.090Z,4.17
2022-10-29T07:21:41.061Z,3.50
2022-10-29T07:24:28.066Z,3.30
2022-10-29T07:27:15.092Z,4.23
2022-10-29T07:30:02.130Z,2.80
2022-10-29T07:32:49.087Z,3.93
2022-10-29T07:35:36.440Z,3.70
2022-10-29T07:38:23.467Z,3.07
2022-10-29T07:41:10.566Z,2.43
2022-10-29T07:43:57.649Z,2.67
2022-10-29T07:46:44.691Z,3.57
2022-10-29T07:49:31.678Z,2.57
2022-10-29T07:52:18.761Z,3.03
2022-10-29T07:55:06.876Z,3.17
2022-10-29T07:57:59.004Z,3.73
2022-10-29T08:00:46.521Z,2.80
2022-10-29T08:03:33.675Z,3.03
2022-10-29T08:06:20.652Z,3.17
2022-10-29T08:09:07.718Z,3.20
2022-10-29T08:11:54.662Z,3.30
2022-10-29T08:14:41.648Z,3.43
2022-10-29T08:17:34.665Z,3.53
2022-10-29T08:20:23.353Z,4.27
2022-10-29T08:23:10.519Z,5.77
2022-10-29T08:25:58.693Z,3.83
2022-10-29T08:28:45.769Z,4.07
2022-10-29T08:31:33.484Z,3.57
2022-10-29T08:34:20.449Z,5.60
2022-10-29T08:37:07.397Z,3.67
2022-10-29T08:39:54.419Z,3.83
2022-10-29T08:42:58.820Z,2.80
2022-10-29T08:45:48.629Z,3.03
2022-10-29T08:48:44.388Z,4.37
2022-10-29T08:51:38.828Z,4.07
2022-10-29T08:54:31.730Z,2.93
2022-10-29T08:57:23.435Z,2.90
2022-10-29T09:00:16.930Z,2.63
2022-10-29T09:03:11.679Z,3.13
2022-10-29T09:06:07.991Z,3.30
2022-10-29T09:09:00.840Z,3.53
2022-10-29T09:12:11.704Z,3.00
2022-10-29T09:15:17.122Z,3.30
2022-10-29T09:18:25.951Z,3.50
2022-10-29T09:21:31.155Z,3.53
2022-10-29T09:24:45.345Z,2.93
2022-10-29T09:27:53.512Z,3.37
2022-10-29T09:30:57.262Z,3.63
2022-10-29T09:33:48.009Z,3.87
2022-10-29T09:36:35.217Z,3.77
2022-10-29T09:39:40.514Z,3.03
2022-10-29T09:42:35.828Z,3.80
2022-10-29T09:45:29.396Z,4.67
2022-10-29T09:48:29.968Z,2.97
2022-10-29T09:51:26.447Z,5.40
2022-10-29T09:54:13.539Z,5.07
2022-10-29T09:57:02.477Z,3.73
2022-10-29T10:00:17.893Z,6.13
2022-10-29T10:03:16.138Z,3.27
2022-10-29T10:06:08.996Z,5.60
2022-10-29T10:09:04.563Z,3.60
2022-10-29T10:11:58.836Z,3.20
2022-10-29T10:14:48.020Z,3.90
2022-10-29T10:17:55.444Z,2.93
2022-10-29T10:20:46.126Z,3.13
2022-10-29T10:23:40.739Z,4.47
2022-10-29T10:26:32.959Z,5.10
2022-10-29T10:29:22.254Z,5.97
2022-10-29T10:32:16.535Z,4.63
2022-10-29T10:35:22.180Z,3.50
2022-10-29T10:38:10.106Z,4.10
2022-10-29T10:41:05.225Z,3.93
2022-10-29T10:43:55.050Z,5.07
2022-10-29T10:46:44.330Z,4.60
2022-10-29T10:49:38.881Z,3.37
2022-10-29T10:52:30.373Z,3.27
2022-10-29T10:55:22.934Z,3.73
2022-10-29T10:58:17.446Z,7.67
2022-10-29T11:01:12.610Z,7.23
2022-10-29T11:04:15.127Z,4.00
2022-10-29T11:07:07.328Z,5.17
2022-10-29T11:09:56.011Z,3.47
2022-10-29T11:12:49.249Z,6.63
2022-10-29T11:15:44.316Z,5.87
2022-10-29T11:18:53.330Z,4.10
2022-10-29T11:22:04.137Z,4.20
2022-10-29T11:25:17.980Z,3.97
2022-10-29T11:28:26.085Z,6.17
2022-10-29T11:31:47.239Z,5.30
2022-10-29T11:34:44.419Z,6.20
2022-10-29T11:37:40.419Z,6.07
2022-10-29T11:40:34.791Z,6.63
2022-10-29T11:43:21.981Z,5.17
2022-10-29T11:46:21.535Z,3.53
2022-10-29T11:49:20.362Z,3.53
2022-10-29T11:52:17.004Z,4.57
2022-10-29T11:55:28.820Z,5.37
2022-10-29T11:58:34.245Z,6.10
2022-10-29T12:01:51.637Z,3.77
2022-10-29T12:04:59.011Z,5.03
2022-10-29T12:08:14.649Z,5.60
2022-10-29T12:11:23.455Z,4.80
2022-10-29T12:14:33.740Z,5.20
2022-10-29T12:17:22.512Z,5.80
2022-10-29T12:20:25.004Z,5.27
2022-10-29T12:23:27.581Z,6.40
2022-10-29T12:26:22.573Z,3.77
2022-10-29T12:29:33.328Z,8.30
2022-10-29T12:32:31.699Z,6.50
2022-10-29T12:35:33.764Z,4.03
2022-10-29T12:38:20.717Z,5.57
2022-10-29T12:41:19.083Z,5.50
2022-10-29T12:44:17.470Z,4.13
2022-10-29T12:47:48.805Z,4.90
2022-10-29T12:51:11.691Z,4.60
2022-10-29T12:54:22.724Z,4.77
2022-10-29T12:57:12.658Z,3.40
2022-10-29T13:00:25.517Z,4.07
2022-10-29T13:03:12.607Z,6.40
2022-10-29T13:06:38.271Z,3.97
2022-10-29T13:09:36.577Z,4.13
2022-10-29T13:12:54.765Z,4.80
2022-10-29T13:15:44.416Z,7.67
2022-10-29T13:18:56.413Z,7.27
2022-10-29T13:22:01.252Z,6.80
2022-10-29T13:25:26.784Z,4.80
2022-10-29T13:28:13.691Z,6.30
2022-10-29T13:31:03.377Z,7.07
2022-10-29T13:33:50.564Z,3.47
2022-10-29T13:36:38.063Z,5.17
2022-10-29T13:39:25.056Z,6.03
2022-10-29T13:42:13.157Z,4.03
2022-10-29T13:45:00.217Z,4.33
2022-10-29T13:47:48.583Z,3.93
2022-10-29T13:50:37.799Z,3.80
2022-10-29T13:53:47.036Z,6.80
2022-10-29T13:56:58.190Z,4.73
2022-10-29T14:00:03.342Z,4.67
2022-10-29T14:02:59.744Z,3.63
2022-10-29T14:05:56.572Z,4.23
2022-10-29T14:08:58.559Z,5.03
2022-10-29T14:12:01.309Z,4.63
2022-10-29T14:15:02.473Z,3.40
2022-10-29T14:17:49.634Z,4.73
2022-10-29T14:20:36.603Z,5.17
2022-10-29T14:23:23.807Z,4.33
2022-10-29T14:26:17.061Z,7.53
2022-10-29T14:29:24.426Z,6.03
2022-10-29T14:32:20.310Z,6.87
2022-10-29T14:35:07.747Z,6.30
2022-10-29T14:37:56.999Z,3.57
2022-10-29T14:40:46.557Z,5.27
2022-10-29T14:43:35.103Z,5.03
2022-10-29T14:46:26.584Z,3.83
2022-10-29T14:49:21.357Z,3.93
2022-10-29T14:52:33.010Z,4.47
2022-10-29T14:55:25.032Z,4.03
2022-10-29T14:58:12.004Z,7.17
2022-10-29T15:01:02.422Z,4.27
2022-10-29T15:03:58.361Z,4.37
2022-10-29T15:06:45.439Z,4.47
2022-10-29T15:09:33.392Z,3.47
2022-10-29T15:12:23.891Z,3.43
2022-10-29T15:15:22.985Z,3.20
2022-10-29T15:18:20.604Z,2.73
2022-10-29T15:21:07.651Z,3.43
2022-10-29T15:24:00.468Z,3.47
2022-10-29T15:26:53.269Z,3.23
2022-10-29T15:29:43.099Z,3.33
2022-10-29T15:32:31.586Z,4.10
2022-10-29T15:35:21.357Z,8.10
2022-10-29T15:38:35.769Z,3.10
2022-10-29T15:41:38.937Z,4.13
2022-10-29T15:44:35.411Z,5.93
2022-10-29T15:47:31.374Z,5.27
2022-10-29T15:50:19.935Z,10.43
2022-10-29T15:53:13.691Z,6.07
2022-10-29T15:56:00.656Z,5.60
2022-10-29T15:58:47.831Z,3.77
2022-10-29T16:01:34.954Z,6.73
2022-10-29T16:04:22.076Z,5.10
2022-10-29T16:07:13.673Z,4.47
2022-10-29T16:10:01.774Z,7.20
2022-10-29T16:12:49.847Z,4.30
2022-10-29T16:15:40.073Z,5.30
2022-10-29T16:18:30.192Z,5.67
2022-10-29T16:21:20.845Z,5.27
2022-10-29T16:24:13.522Z,3.87
2022-10-29T16:27:00.454Z,4.50
2022-10-29T16:29:49.451Z,6.47
2022-10-29T16:32:36.440Z,5.53
2022-10-29T16:35:25.725Z,3.80
2022-10-29T16:38:12.807Z,5.57
2022-10-29T16:40:59.737Z,5.13
2022-10-29T16:43:47.592Z,6.57
2022-10-29T16:46:34.531Z,4.07
2022-10-29T16:49:21.556Z,4.13
2022-10-29T16:52:09.415Z,4.70
2022-10-29T16:54:56.739Z,5.87
2022-10-29T16:57:43.720Z,3.80
2022-10-29T17:00:32.971Z,4.47
2022-10-29T17:03:20.309Z,3.70
2022-10-29T17:06:08.992Z,3.93
2022-10-29T17:08:55.955Z,4.83
2022-10-29T17:11:43.000Z,3.63
2022-10-29T17:14:29.954Z,4.20
2022-10-29T17:17:17.123Z,5.43
2022-10-29T17:20:05.394Z,6.67
2022-10-29T17:22:53.133Z,5.80
2022-10-29T17:25:40.240Z,4.73
2022-10-29T17:28:28.045Z,3.87
2022-10-29T17:31:15.048Z,3.60
2022-10-29T17:34:02.016Z,6.07
2022-10-29T17:36:49.607Z,4.13
2022-10-29T17:39:36.735Z,5.27
2022-10-29T17:42:23.724Z,3.60
2022-10-29T17:45:10.864Z,4.60
2022-10-29T17:47:59.125Z,3.60
2022-10-29T17:50:57.547Z,4.07
2022-10-29T17:53:44.624Z,7.27
2022-10-29T17:56:32.384Z,5.97
2022-10-29T17:59:19.398Z,5.80
2022-10-29T18:02:06.531Z,5.00
2022-10-29T18:04:53.614Z,3.30
2022-10-29T18:07:40.572Z,3.40
2022-10-29T18:10:27.559Z,3.13
2022-10-29T18:13:14.513Z,6.50
2022-10-29T18:16:02.462Z,5.93
2022-10-29T18:19:01.304Z,4.13
2022-10-29T18:21:49.687Z,4.83
2022-10-29T18:24:36.677Z,6.30
2022-10-29T18:27:23.681Z,5.23
2022-10-29T18:30:10.916Z,5.40
2022-10-29T18:32:58.124Z,5.67
2022-10-29T18:35:45.267Z,6.60
2022-10-29T18:38:32.241Z,5.93
2022-10-29T18:41:19.361Z,6.70
2022-10-29T18:44:06.469Z,5.80
2022-10-29T18:46:53.444Z,6.23
2022-10-29T18:49:40.425Z,6.43
2022-10-29T18:52:27.397Z,6.70
2022-10-29T18:55:14.454Z,6.30
2022-10-29T18:58:01.450Z,5.73
2022-10-29T19:00:49.518Z,6.87
2022-10-29T19:03:37.475Z,5.40
2022-10-29T19:06:26.769Z,4.63
2022-10-29T19:09:13.744Z,5.17
2022-10-29T19:12:00.746Z,5.40
2022-10-29T19:14:47.757Z,4.40
2022-10-29T19:17:34.730Z,6.57
2022-10-29T19:20:21.681Z,4.70
2022-10-29T19:23:08.659Z,5.30
2022-10-29T19:25:55.705Z,3.50
2022-10-29T19:28:43.536Z,3.27
2022-10-29T19:31:32.140Z,3.80
2022-10-29T19:34:19.245Z,4.60
2022-10-29T19:37:06.212Z,4.30
2022-10-29T19:39:53.228Z,5.77
2022-10-29T19:42:40.206Z,2.97
2022-10-29T19:45:27.205Z,3.30
2022-10-29T19:48:14.165Z,4.00
2022-10-29T19:51:01.459Z,3.77
2022-10-29T19:53:49.133Z,4.33
2022-10-29T19:56:36.124Z,3.70
2022-10-29T19:59:23.125Z,3.57
2022-10-29T20:02:11.121Z,3.30
2022-10-29T20:04:58.213Z,3.47
2022-10-29T20:07:45.302Z,4.80
2022-10-29T20:10:32.432Z,4.50
2022-10-29T20:13:19.397Z,3.47
2022-10-29T20:16:09.192Z,3.53
2022-10-29T20:18:56.313Z,3.40
2022-10-29T20:21:43.297Z,3.53
2022-10-29T20:24:30.291Z,3.90
2022-10-29T20:27:17.384Z,4.07
2022-10-29T20:30:05.890Z,4.40
2022-10-29T20:32:52.850Z,3.57
2022-10-29T20:35:40.115Z,3.90
2022-10-29T20:38:27.086Z,3.93
2022-10-29T20:41:14.045Z,4.33
2022-10-29T20:44:01.428Z,5.73
2022-10-29T20:46:48.903Z,4.03
2022-10-29T20:49:36.270Z,3.73
2022-10-29T20:52:23.621Z,3.93
2022-10-29T20:55:10.633Z,3.80
2022-10-29T20:57:58.045Z,3.50
2022-10-29T21:00:45.392Z,3.60
2022-10-29T21:03:33.782Z,3.80
2022-10-29T21:06:21.520Z,3.53
2022-10-29T21:09:08.525Z,3.80
2022-10-29T21:11:55.513Z,3.90
2022-10-29T21:14:42.480Z,4.30
2022-10-29T21:17:29.489Z,3.87
2022-10-29T21:20:16.585Z,4.03
2022-10-29T21:23:03.541Z,3.50
2022-10-29T21:25:53.998Z,4.67
2022-10-29T21:28:41.511Z,7.07
2022-10-29T21:31:28.476Z,7.03
2022-10-29T21:34:15.424Z,5.20
2022-10-29T21:37:02.397Z,4.50
2022-10-29T21:39:49.453Z,4.10
2022-10-29T21:42:36.498Z,3.93
2022-10-29T21:45:23.571Z,4.83
2022-10-29T21:48:11.713Z,3.50
2022-10-29T21:51:06.587Z,4.87
2022-10-29T21:53:54.195Z,3.93
2022-10-29T21:56:41.451Z,3.40
2022-10-29T21:59:28.433Z,3.27
2022-10-29T22:02:15.508Z,6.13
2022-10-29T22:05:02.558Z,4.13
2022-10-29T22:07:49.575Z,3.27
2022-10-29T22:10:36.755Z,3.33
2022-10-29T22:13:23.776Z,4.30
2022-10-29T22:16:11.412Z,3.70
2022-10-29T22:18:58.372Z,4.00
2022-10-29T22:21:46.222Z,3.83
2022-10-29T22:24:33.261Z,5.03
2022-10-29T22:27:20.243Z,4.43
2022-10-29T22:30:07.567Z,4.30
2022-10-29T22:32:56.411Z,4.23
2022-10-29T22:35:43.395Z,4.93
2022-10-29T22:38:30.351Z,4.73
2022-10-29T22:41:17.751Z,3.93
2022-10-29T22:44:04.772Z,5.43
2022-10-29T22:46:51.735Z,3.90
2022-10-29T22:49:38.732Z,6.50
2022-10-29T22:52:25.809Z,6.47
2022-10-29T22:55:12.911Z,6.13
2022-10-29T22:57:59.882Z,5.10
2022-10-29T23:00:47.069Z,5.40
2022-10-29T23:03:34.764Z,4.40
2022-10-29T23:06:23.518Z,3.60
2022-10-29T23:09:10.535Z,3.70
2022-10-29T23:11:57.557Z,3.87
2022-10-29T23:14:44.505Z,4.87
2022-10-29T23:17:31.460Z,4.03
2022-10-29T23:20:18.456Z,5.03
2022-10-29T23:23:05.536Z,5.50
2022-10-29T23:25:52.564Z,4.97
2022-10-29T23:28:40.331Z,3.60
2022-10-29T23:31:28.871Z,5.40
2022-10-29T23:34:15.880Z,5.73
2022-10-29T23:37:04.405Z,4.33
2022-10-29T23:39:54.156Z,4.07
2022-10-29T23:42:41.164Z,3.70
2022-10-29T23:45:28.195Z,3.53
2022-10-29T23:48:15.216Z,3.80
2022-10-29T23:51:02.406Z,3.60
2022-10-29T23:53:53.139Z,4.17
2022-10-29T23:56:43.499Z,5.20
2022-10-29T23:59:30.493Z,3.23
